sensor_id;sensor_type;location;lat;lon;timestamp;pressure;altitude;pressure_sealevel;temperature;humidity
30935;BME280;51033;42.648;23.292;2023-03-01T00:01:49;94321.56;;;2.45;89.74
30935;BME280;51033;42.648;23.292;2023-03-01T00:04:14;94302.69;;;2.17;89.98
30935;BME280;51033;42.648;23.292;2023-03-01T00:06:44;94324.03;;;2.25;90.72
30935;BME280;51033;42.648;23.292;2023-03-01T00:09:14;94306.03;;;2.39;90.12
30935;BME280;51033;42.648;23.292;2023-03-01T00:11:40;94302.94;;;2.47;89.34
30935;BME280;51033;42.648;23.292;2023-03-01T00:14:05;94307.78;;;2.97;88.46
30935;BME280;51033;42.648;23.292;2023-03-01T00:16:37;94307.94;;;2.80;87.60
30935;BME280;51033;42.648;23.292;2023-03-01T00:19:07;94297.06;;;3.04;87.18
30935;BME280;51033;42.648;23.292;2023-03-01T00:21:32;94297.81;;;3.04;85.94
30935;BME280;51033;42.648;23.292;2023-03-01T00:24:00;94284.94;;;2.97;86.34
30935;BME280;51033;42.648;23.292;2023-03-01T00:26:26;94282.31;;;2.97;86.00
30935;BME280;51033;42.648;23.292;2023-03-01T00:28:52;94273.63;;;2.97;86.36
30935;BME280;51033;42.648;23.292;2023-03-01T00:31:20;94273.25;;;3.25;85.59
30935;BME280;51033;42.648;23.292;2023-03-01T00:33:46;94253.09;;;2.94;85.68
30935;BME280;51033;42.648;23.292;2023-03-01T00:36:13;94270.94;;;2.87;86.08
30935;BME280;51033;42.648;23.292;2023-03-01T00:38:41;94263.16;;;2.28;88.50
30935;BME280;51033;42.648;23.292;2023-03-01T00:41:08;94272.59;;;2.24;89.35
30935;BME280;51033;42.648;23.292;2023-03-01T00:43:33;94268.44;;;2.01;90.24
30935;BME280;51033;42.648;23.292;2023-03-01T00:46:03;94247.06;;;1.88;90.73
30935;BME280;51033;42.648;23.292;2023-03-01T00:48:29;94272.31;;;1.94;91.34
30935;BME280;51033;42.648;23.292;2023-03-01T00:50:54;94240.44;;;1.58;91.96
30935;BME280;51033;42.648;23.292;2023-03-01T00:53:20;94248.41;;;1.68;92.08
30935;BME280;51033;42.648;23.292;2023-03-01T00:55:45;94259.50;;;1.76;92.62
30935;BME280;51033;42.648;23.292;2023-03-01T00:58:10;94250.00;;;1.70;92.39
30935;BME280;51033;42.648;23.292;2023-03-01T01:00:36;94252.78;;;1.85;92.08
30935;BME280;51033;42.648;23.292;2023-03-01T01:03:01;94275.38;;;1.64;92.65
30935;BME280;51033;42.648;23.292;2023-03-01T01:05:27;94222.97;;;1.42;92.62
30935;BME280;51033;42.648;23.292;2023-03-01T01:07:52;94245.16;;;1.56;92.67
30935;BME280;51033;42.648;23.292;2023-03-01T01:10:18;94268.53;;;1.63;92.79
30935;BME280;51033;42.648;23.292;2023-03-01T01:12:46;94267.91;;;1.78;92.18
30935;BME280;51033;42.648;23.292;2023-03-01T01:15:12;94239.81;;;1.73;91.64
30935;BME280;51033;42.648;23.292;2023-03-01T01:17:39;94256.44;;;1.84;91.25
30935;BME280;51033;42.648;23.292;2023-03-01T01:20:05;94266.44;;;1.87;90.31
30935;BME280;51033;42.648;23.292;2023-03-01T01:22:31;94264.38;;;1.89;90.41
30935;BME280;51033;42.648;23.292;2023-03-01T01:24:56;94254.16;;;1.65;90.37
30935;BME280;51033;42.648;23.292;2023-03-01T01:27:22;94248.66;;;1.67;90.21
30935;BME280;51033;42.648;23.292;2023-03-01T01:29:47;94268.13;;;1.98;90.10
30935;BME280;51033;42.648;23.292;2023-03-01T01:32:13;94269.53;;;2.05;89.74
30935;BME280;51033;42.648;23.292;2023-03-01T01:34:39;94272.84;;;1.74;90.49
30935;BME280;51033;42.648;23.292;2023-03-01T01:37:04;94253.88;;;1.89;89.67
30935;BME280;51033;42.648;23.292;2023-03-01T01:39:33;94261.69;;;2.42;88.59
30935;BME280;51033;42.648;23.292;2023-03-01T01:42:00;94268.34;;;2.55;86.04
30935;BME280;51033;42.648;23.292;2023-03-01T01:44:26;94268.34;;;2.55;86.39
30935;BME280;51033;42.648;23.292;2023-03-01T01:49:35;94279.63;;;2.19;87.22
30935;BME280;51033;42.648;23.292;2023-03-01T01:57:09;94280.28;;;2.68;84.58
30935;BME280;51033;42.648;23.292;2023-03-01T01:59:36;94251.94;;;2.06;86.22
30935;BME280;51033;42.648;23.292;2023-03-01T02:02:03;94271.59;;;2.30;86.08
30935;BME280;51033;42.648;23.292;2023-03-01T02:04:31;94272.34;;;2.31;86.01
30935;BME280;51033;42.648;23.292;2023-03-01T02:07:01;94245.41;;;2.40;85.40
30935;BME280;51033;42.648;23.292;2023-03-01T02:09:30;94247.09;;;1.93;86.40
30935;BME280;51033;42.648;23.292;2023-03-01T02:11:57;94243.88;;;1.86;87.33
30935;BME280;51033;42.648;23.292;2023-03-01T02:14:22;94258.00;;;2.38;86.37
30935;BME280;51033;42.648;23.292;2023-03-01T02:16:48;94233.75;;;1.94;86.37
30935;BME280;51033;42.648;23.292;2023-03-01T02:19:39;94233.19;;;1.92;87.26
30935;BME280;51033;42.648;23.292;2023-03-01T02:27:38;94244.03;;;1.52;88.82
30935;BME280;51033;42.648;23.292;2023-03-01T02:30:07;94234.91;;;1.55;88.94
30935;BME280;51033;42.648;23.292;2023-03-01T02:32:33;94253.59;;;1.63;89.08
30935;BME280;51033;42.648;23.292;2023-03-01T02:34:59;94264.59;;;1.60;89.40
30935;BME280;51033;42.648;23.292;2023-03-01T02:37:25;94268.38;;;1.48;89.62
30935;BME280;51033;42.648;23.292;2023-03-01T02:39:59;94270.00;;;1.54;89.40
30935;BME280;51033;42.648;23.292;2023-03-01T02:42:35;94266.72;;;1.63;89.26
30935;BME280;51033;42.648;23.292;2023-03-01T02:45:02;94230.63;;;1.22;89.92
30935;BME280;51033;42.648;23.292;2023-03-01T02:47:28;94254.31;;;1.32;90.61
30935;BME280;51033;42.648;23.292;2023-03-01T02:49:53;94256.31;;;1.25;90.74
30935;BME280;51033;42.648;23.292;2023-03-01T02:52:43;94262.06;;;1.22;91.30
30935;BME280;51033;42.648;23.292;2023-03-01T02:55:15;94241.22;;;1.10;91.82
30935;BME280;51033;42.648;23.292;2023-03-01T02:57:43;94259.44;;;1.22;92.00
30935;BME280;51033;42.648;23.292;2023-03-01T03:00:12;94265.78;;;1.26;92.23
30935;BME280;51033;42.648;23.292;2023-03-01T03:02:47;94248.41;;;1.20;92.09
30935;BME280;51033;42.648;23.292;2023-03-01T03:05:20;94251.97;;;1.14;92.68
30935;BME280;51033;42.648;23.292;2023-03-01T03:07:47;94247.25;;;1.11;92.87
30935;BME280;51033;42.648;23.292;2023-03-01T03:10:19;94230.66;;;1.05;93.12
30935;BME280;51033;42.648;23.292;2023-03-01T03:12:54;94248.09;;;1.16;93.17
30935;BME280;51033;42.648;23.292;2023-03-01T03:15:21;94256.56;;;1.23;93.26
30935;BME280;51033;42.648;23.292;2023-03-01T03:17:48;94262.66;;;1.29;93.01
30935;BME280;51033;42.648;23.292;2023-03-01T03:20:16;94212.41;;;0.89;93.13
30935;BME280;51033;42.648;23.292;2023-03-01T03:22:48;94259.31;;;1.12;93.39
30935;BME280;51033;42.648;23.292;2023-03-01T03:25:15;94256.81;;;1.22;93.76
30935;BME280;51033;42.648;23.292;2023-03-01T03:27:42;94247.06;;;1.17;93.29
30935;BME280;51033;42.648;23.292;2023-03-01T03:30:12;94255.47;;;1.19;93.42
30935;BME280;51033;42.648;23.292;2023-03-01T03:32:39;94224.28;;;0.96;93.73
30935;BME280;51033;42.648;23.292;2023-03-01T03:35:07;94247.06;;;1.17;93.50
30935;BME280;51033;42.648;23.292;2023-03-01T03:37:41;94234.13;;;1.11;93.05
30935;BME280;51033;42.648;23.292;2023-03-01T03:40:28;94247.97;;;1.28;92.82
30935;BME280;51033;42.648;23.292;2023-03-01T03:42:54;94252.16;;;1.29;92.81
30935;BME280;51033;42.648;23.292;2023-03-01T03:45:38;94256.94;;;1.32;92.55
30935;BME280;51033;42.648;23.292;2023-03-01T03:48:14;94237.41;;;1.23;92.83
30935;BME280;51033;42.648;23.292;2023-03-01T03:50:40;94259.97;;;1.24;93.11
30935;BME280;51033;42.648;23.292;2023-03-01T03:53:11;94246.28;;;1.17;92.54
30935;BME280;51033;42.648;23.292;2023-03-01T03:55:37;94251.50;;;1.17;92.98
30935;BME280;51033;42.648;23.292;2023-03-01T03:58:08;94243.16;;;1.20;92.86
30935;BME280;51033;42.648;23.292;2023-03-01T04:03:25;94258.50;;;1.11;93.63
30935;BME280;51033;42.648;23.292;2023-03-01T04:05:52;94255.72;;;1.18;93.80
30935;BME280;51033;42.648;23.292;2023-03-01T04:08:19;94250.94;;;1.15;93.54
30935;BME280;51033;42.648;23.292;2023-03-01T04:10:48;94242.78;;;1.11;93.71
30935;BME280;51033;42.648;23.292;2023-03-01T04:13:16;94253.69;;;1.25;93.41
30935;BME280;51033;42.648;23.292;2023-03-01T04:15:43;94259.09;;;1.18;93.16
30935;BME280;51033;42.648;23.292;2023-03-01T04:18:11;94264.63;;;1.17;93.64
30935;BME280;51033;42.648;23.292;2023-03-01T04:20:37;94248.28;;;1.10;93.48
30935;BME280;51033;42.648;23.292;2023-03-01T04:28:23;94267.81;;;1.24;93.56
30935;BME280;51033;42.648;23.292;2023-03-01T04:30:53;94274.38;;;1.21;93.54
30935;BME280;51033;42.648;23.292;2023-03-01T04:33:19;94256.56;;;1.02;93.68
30935;BME280;51033;42.648;23.292;2023-03-01T04:35:44;94263.31;;;0.98;93.90
30935;BME280;51033;42.648;23.292;2023-03-01T04:38:10;94246.44;;;0.89;94.23
30935;BME280;51033;42.648;23.292;2023-03-01T04:40:36;94266.31;;;1.06;94.22
30935;BME280;51033;42.648;23.292;2023-03-01T04:43:03;94269.66;;;1.02;94.25
30935;BME280;51033;42.648;23.292;2023-03-01T04:45:29;94240.94;;;0.90;94.31
30935;BME280;51033;42.648;23.292;2023-03-01T04:47:54;94242.03;;;0.94;94.10
30935;BME280;51033;42.648;23.292;2023-03-01T04:50:23;94250.28;;;1.03;93.90
30935;BME280;51033;42.648;23.292;2023-03-01T04:52:49;94258.94;;;1.03;94.30
30935;BME280;51033;42.648;23.292;2023-03-01T04:55:14;94243.41;;;0.97;94.05
30935;BME280;51033;42.648;23.292;2023-03-01T04:57:40;94261.88;;;1.07;94.07
30935;BME280;51033;42.648;23.292;2023-03-01T05:00:10;94261.22;;;1.00;94.15
30935;BME280;51033;42.648;23.292;2023-03-01T05:05:19;94256.91;;;0.89;94.88
30935;BME280;51033;42.648;23.292;2023-03-01T05:07:45;94250.03;;;0.83;95.46
30935;BME280;51033;42.648;23.292;2023-03-01T05:10:10;94241.44;;;0.87;95.15
30935;BME280;51033;42.648;23.292;2023-03-01T05:12:36;94246.44;;;0.89;94.81
30935;BME280;51033;42.648;23.292;2023-03-01T05:15:03;94250.41;;;0.91;95.05
30935;BME280;51033;42.648;23.292;2023-03-01T05:17:32;94247.78;;;0.91;94.39
30935;BME280;51033;42.648;23.292;2023-03-01T05:19:59;94244.91;;;0.93;94.73
30935;BME280;51033;42.648;23.292;2023-03-01T05:22:27;94241.81;;;0.96;94.16
30935;BME280;51033;42.648;23.292;2023-03-01T05:24:52;94246.19;;;0.90;93.95
30935;BME280;51033;42.648;23.292;2023-03-01T05:27:19;94243.88;;;0.94;93.97
30935;BME280;51033;42.648;23.292;2023-03-01T05:29:47;94262.66;;;1.07;94.04
30935;BME280;51033;42.648;23.292;2023-03-01T05:32:13;94256.56;;;1.02;93.58
30935;BME280;51033;42.648;23.292;2023-03-01T05:34:41;94258.28;;;1.13;93.02
30935;BME280;51033;42.648;23.292;2023-03-01T05:37:07;94216.84;;;0.88;93.20
30935;BME280;51033;42.648;23.292;2023-03-01T05:39:34;94221.81;;;0.90;92.95
30935;BME280;51033;42.648;23.292;2023-03-01T05:42:00;94200.94;;;0.73;92.72
30935;BME280;51033;42.648;23.292;2023-03-01T05:44:28;94254.66;;;1.19;92.30
30935;BME280;51033;42.648;23.292;2023-03-01T05:46:54;94247.25;;;1.11;92.21
30935;BME280;51033;42.648;23.292;2023-03-01T05:49:20;94230.31;;;0.97;91.79
30935;BME280;51033;42.648;23.292;2023-03-01T05:51:51;94264.19;;;1.25;91.46
30935;BME280;51033;42.648;23.292;2023-03-01T05:54:17;94253.41;;;1.21;90.81
30935;BME280;51033;42.648;23.292;2023-03-01T05:56:44;94278.44;;;1.34;90.50
30935;BME280;51033;42.648;23.292;2023-03-01T05:59:10;94261.00;;;1.23;89.76
30935;BME280;51033;42.648;23.292;2023-03-01T06:01:36;94283.56;;;1.46;89.47
30935;BME280;51033;42.648;23.292;2023-03-01T06:04:05;94250.09;;;1.31;88.88
30935;BME280;51033;42.648;23.292;2023-03-01T06:06:34;94263.81;;;1.38;88.19
30935;BME280;51033;42.648;23.292;2023-03-01T06:08:59;94282.38;;;1.58;87.92
30935;BME280;51033;42.648;23.292;2023-03-01T06:11:25;94259.97;;;1.46;87.75
30935;BME280;51033;42.648;23.292;2023-03-01T06:13:50;94279.19;;;1.51;87.29
30935;BME280;51033;42.648;23.292;2023-03-01T06:16:15;94284.41;;;1.51;87.38
30935;BME280;51033;42.648;23.292;2023-03-01T06:18:41;94295.84;;;1.67;86.93
30935;BME280;51033;42.648;23.292;2023-03-01T06:21:08;94305.84;;;1.48;87.50
30935;BME280;51033;42.648;23.292;2023-03-01T06:23:38;94299.75;;;1.64;87.41
30935;BME280;51033;42.648;23.292;2023-03-01T06:26:07;94297.03;;;1.54;86.93
30935;BME280;51033;42.648;23.292;2023-03-01T06:28:33;94274.78;;;1.35;86.95
30935;BME280;51033;42.648;23.292;2023-03-01T06:30:58;94290.25;;;1.58;87.23
30935;BME280;51033;42.648;23.292;2023-03-01T06:33:24;94302.75;;;1.73;87.38
30935;BME280;51033;42.648;23.292;2023-03-01T06:35:50;94292.50;;;1.72;87.25
30935;BME280;51033;42.648;23.292;2023-03-01T06:38:16;94272.09;;;1.52;87.19
30935;BME280;51033;42.648;23.292;2023-03-01T06:40:43;94292.06;;;1.58;87.31
30935;BME280;51033;42.648;23.292;2023-03-01T06:43:09;94304.94;;;1.81;86.80
30935;BME280;51033;42.648;23.292;2023-03-01T06:45:34;94305.19;;;1.80;86.12
30935;BME280;51033;42.648;23.292;2023-03-01T06:48:04;94302.94;;;1.66;86.05
30935;BME280;51033;42.648;23.292;2023-03-01T06:50:29;94287.16;;;1.61;85.97
30935;BME280;51033;42.648;23.292;2023-03-01T06:52:56;94288.47;;;1.64;85.38
30935;BME280;51033;42.648;23.292;2023-03-01T06:55:21;94288.19;;;1.60;85.20
30935;BME280;51033;42.648;23.292;2023-03-01T06:57:46;94303.53;;;1.74;85.00
30935;BME280;51033;42.648;23.292;2023-03-01T07:00:12;94285.91;;;1.47;85.21
30935;BME280;51033;42.648;23.292;2023-03-01T07:02:38;94305.84;;;1.70;85.16
30935;BME280;51033;42.648;23.292;2023-03-01T07:05:04;94303.53;;;1.74;85.35
30935;BME280;51033;42.648;23.292;2023-03-01T07:07:29;94294.56;;;1.70;85.47
30935;BME280;51033;42.648;23.292;2023-03-01T07:09:54;94316.19;;;1.82;85.27
30935;BME280;51033;42.648;23.292;2023-03-01T07:12:20;94294.00;;;1.67;85.35
30935;BME280;51033;42.648;23.292;2023-03-01T07:14:46;94305.19;;;1.80;85.83
30935;BME280;51033;42.648;23.292;2023-03-01T07:17:11;94286.22;;;1.73;86.58
30935;BME280;51033;42.648;23.292;2023-03-01T07:19:36;94307.81;;;1.80;86.11
30935;BME280;51033;42.648;23.292;2023-03-01T07:22:03;94302.84;;;2.05;86.22
30935;BME280;51033;42.648;23.292;2023-03-01T07:24:29;94298.34;;;2.00;85.87
30935;BME280;51033;42.648;23.292;2023-03-01T07:26:54;94278.59;;;1.71;87.09
30935;BME280;51033;42.648;23.292;2023-03-01T07:29:22;94271.47;;;1.66;87.18
30935;BME280;51033;42.648;23.292;2023-03-01T07:31:47;94299.19;;;1.84;87.58
30935;BME280;51033;42.648;23.292;2023-03-01T07:34:12;94294.31;;;1.93;87.25
30935;BME280;51033;42.648;23.292;2023-03-01T07:36:38;94287.44;;;1.87;85.89
30935;BME280;51033;42.648;23.292;2023-03-01T07:39:04;94280.13;;;1.89;85.38
30935;BME280;51033;42.648;23.292;2023-03-01T07:41:30;94292.59;;;2.03;85.28
30935;BME280;51033;42.648;23.292;2023-03-01T07:43:55;94277.53;;;1.94;84.83
30935;BME280;51033;42.648;23.292;2023-03-01T07:46:21;94291.28;;;2.06;84.50
30935;BME280;51033;42.648;23.292;2023-03-01T07:48:47;94256.81;;;1.92;84.87
30935;BME280;51033;42.648;23.292;2023-03-01T07:51:13;94285.38;;;2.16;84.84
30935;BME280;51033;42.648;23.292;2023-03-01T07:53:38;94282.84;;;2.31;84.67
30935;BME280;51033;42.648;23.292;2023-03-01T07:56:06;94271.59;;;2.35;84.04
30935;BME280;51033;42.648;23.292;2023-03-01T07:58:34;94258.25;;;2.05;83.09
30935;BME280;51033;42.648;23.292;2023-03-01T08:01:02;94285.94;;;2.23;82.41
30935;BME280;51033;42.648;23.292;2023-03-01T08:03:27;94255.16;;;2.13;82.39
30935;BME280;51033;42.648;23.292;2023-03-01T08:05:53;94273.06;;;2.21;81.73
30935;BME280;51033;42.648;23.292;2023-03-01T08:08:18;94261.50;;;2.17;82.46
30935;BME280;51033;42.648;23.292;2023-03-01T08:10:44;94278.34;;;2.26;82.55
30935;BME280;51033;42.648;23.292;2023-03-01T08:13:09;94258.25;;;2.05;81.97
30935;BME280;51033;42.648;23.292;2023-03-01T08:15:34;94256.66;;;2.04;82.44
30935;BME280;51033;42.648;23.292;2023-03-01T08:18:00;94264.66;;;2.19;81.90
30935;BME280;51033;42.648;23.292;2023-03-01T08:20:25;94260.41;;;2.13;81.47
30935;BME280;51033;42.648;23.292;2023-03-01T08:22:51;94287.59;;;2.29;81.52
30935;BME280;51033;42.648;23.292;2023-03-01T08:25:16;94277.31;;;2.27;81.66
30935;BME280;51033;42.648;23.292;2023-03-01T08:27:42;94265.03;;;2.33;81.00
30935;BME280;51033;42.648;23.292;2023-03-01T08:30:08;94283.19;;;2.71;80.61
30935;BME280;51033;42.648;23.292;2023-03-01T08:32:38;94269.75;;;2.68;79.44
30935;BME280;51033;42.648;23.292;2023-03-01T08:35:04;94281.94;;;2.79;79.88
30935;BME280;51033;42.648;23.292;2023-03-01T08:37:30;94250.38;;;2.74;79.71
30935;BME280;51033;42.648;23.292;2023-03-01T08:40:01;94278.41;;;3.05;79.45
30935;BME280;51033;42.648;23.292;2023-03-01T08:42:29;94264.63;;;2.83;79.41
30935;BME280;51033;42.648;23.292;2023-03-01T08:44:55;94283.22;;;2.76;79.41
30935;BME280;51033;42.648;23.292;2023-03-01T08:47:21;94274.22;;;2.67;79.69
30935;BME280;51033;42.648;23.292;2023-03-01T08:49:49;94260.09;;;2.73;79.22
30935;BME280;51033;42.648;23.292;2023-03-01T08:52:14;94283.44;;;2.75;79.58
30935;BME280;51033;42.648;23.292;2023-03-01T08:54:40;94257.13;;;2.65;78.65
30935;BME280;51033;42.648;23.292;2023-03-01T08:57:05;94264.50;;;2.68;78.57
30935;BME280;51033;42.648;23.292;2023-03-01T08:59:30;94284.56;;;2.79;78.63
30935;BME280;51033;42.648;23.292;2023-03-01T09:02:00;94260.41;;;2.82;78.68
30935;BME280;51033;42.648;23.292;2023-03-01T09:04:26;94280.63;;;3.33;77.87
30935;BME280;51033;42.648;23.292;2023-03-01T09:06:51;94271.91;;;3.18;77.04
30935;BME280;51033;42.648;23.292;2023-03-01T09:09:17;94257.44;;;3.20;77.28
30935;BME280;51033;42.648;23.292;2023-03-01T09:11:44;94275.88;;;3.25;76.86
30935;BME280;51033;42.648;23.292;2023-03-01T09:14:12;94281.63;;;3.17;77.27
30935;BME280;51033;42.648;23.292;2023-03-01T09:16:37;94278.91;;;3.02;77.54
30935;BME280;51033;42.648;23.292;2023-03-01T09:19:03;94281.00;;;3.00;77.90
30935;BME280;51033;42.648;23.292;2023-03-01T09:21:29;94246.84;;;3.05;78.09
30935;BME280;51033;42.648;23.292;2023-03-01T09:23:56;94253.13;;;2.99;78.13
30935;BME280;51033;42.648;23.292;2023-03-01T09:26:23;94250.50;;;2.99;78.19
30935;BME280;51033;42.648;23.292;2023-03-01T09:28:53;94275.81;;;3.15;78.15
30935;BME280;51033;42.648;23.292;2023-03-01T09:31:20;94265.44;;;3.40;77.52
30935;BME280;51033;42.648;23.292;2023-03-01T09:33:47;94256.41;;;3.21;77.13
30935;BME280;51033;42.648;23.292;2023-03-01T09:36:18;94261.94;;;3.25;77.73
30935;BME280;51033;42.648;23.292;2023-03-01T09:38:44;94260.88;;;3.21;77.46
30935;BME280;51033;42.648;23.292;2023-03-01T09:46:13;94259.53;;;3.13;77.33
30935;BME280;51033;42.648;23.292;2023-03-01T09:48:45;94251.31;;;3.05;77.84
30935;BME280;51033;42.648;23.292;2023-03-01T09:51:18;94250.13;;;3.27;77.24
30935;BME280;51033;42.648;23.292;2023-03-01T09:53:45;94242.50;;;3.26;77.51
30935;BME280;51033;42.648;23.292;2023-03-01T10:04:44;94240.13;;;3.29;77.14
30935;BME280;51033;42.648;23.292;2023-03-01T10:10:21;94239.69;;;3.53;77.17
30935;BME280;51033;42.648;23.292;2023-03-01T10:12:50;94223.06;;;3.27;77.51
30935;BME280;51033;42.648;23.292;2023-03-01T10:15:41;94175.16;;;3.15;77.43
30935;BME280;51033;42.648;23.292;2023-03-01T10:18:09;94227.41;;;3.83;77.37
30935;BME280;51033;42.648;23.292;2023-03-01T10:20:46;94236.28;;;3.47;76.82
30935;BME280;51033;42.648;23.292;2023-03-01T10:23:14;94218.66;;;3.53;77.47
30935;BME280;51033;42.648;23.292;2023-03-01T10:26:07;94226.81;;;3.46;77.55
30935;BME280;51033;42.648;23.292;2023-03-01T10:28:42;94217.38;;;3.65;77.15
30935;BME280;51033;42.648;23.292;2023-03-01T10:31:13;94217.09;;;3.57;76.97
30935;BME280;51033;42.648;23.292;2023-03-01T10:33:41;94216.06;;;3.68;77.07
30935;BME280;51033;42.648;23.292;2023-03-01T10:36:08;94212.38;;;3.69;76.56
30935;BME280;51033;42.648;23.292;2023-03-01T10:38:54;94215.69;;;3.29;77.99
30935;BME280;51033;42.648;23.292;2023-03-01T10:41:25;94216.78;;;3.33;77.76
30935;BME280;51033;42.648;23.292;2023-03-01T10:43:54;94208.13;;;3.43;77.59
30935;BME280;51033;42.648;23.292;2023-03-01T10:46:35;94203.38;;;3.45;77.50
30935;BME280;51033;42.648;23.292;2023-03-01T10:49:13;94213.97;;;3.75;76.79
30935;BME280;51033;42.648;23.292;2023-03-01T10:51:44;94186.09;;;3.74;76.62
30935;BME280;51033;42.648;23.292;2023-03-01T10:54:31;94184.72;;;3.46;76.90
30935;BME280;51033;42.648;23.292;2023-03-01T10:56:59;94196.50;;;3.33;77.52
30935;BME280;51033;42.648;23.292;2023-03-01T10:59:33;94215.56;;;3.71;77.52
30935;BME280;51033;42.648;23.292;2023-03-01T11:07:49;94216.56;;;3.55;76.80
30935;BME280;51033;42.648;23.292;2023-03-01T11:10:22;94225.53;;;3.69;76.74
30935;BME280;51033;42.648;23.292;2023-03-01T11:12:50;94219.72;;;3.52;77.12
30935;BME280;51033;42.648;23.292;2023-03-01T11:15:22;94215.78;;;3.59;77.09
30935;BME280;51033;42.648;23.292;2023-03-01T11:17:48;94200.81;;;3.70;76.73
30935;BME280;51033;42.648;23.292;2023-03-01T11:20:20;94225.00;;;3.57;77.21
30935;BME280;51033;42.648;23.292;2023-03-01T11:22:54;94185.22;;;3.43;76.60
30935;BME280;51033;42.648;23.292;2023-03-01T11:25:25;94219.19;;;3.60;77.27
30935;BME280;51033;42.648;23.292;2023-03-01T11:27:53;94218.41;;;3.59;77.22
30935;BME280;51033;42.648;23.292;2023-03-01T11:30:46;94218.41;;;3.54;77.71
30935;BME280;51033;42.648;23.292;2023-03-01T11:33:24;94209.47;;;3.55;77.98
30935;BME280;51033;42.648;23.292;2023-03-01T11:36:16;94198.41;;;3.58;76.77
30935;BME280;51033;42.648;23.292;2023-03-01T11:38:44;94206.59;;;3.67;76.55
30935;BME280;51033;42.648;23.292;2023-03-01T11:41:19;94195.00;;;3.63;76.19
30935;BME280;51033;42.648;23.292;2023-03-01T11:46:49;94189.53;;;3.79;76.21
30935;BME280;51033;42.648;23.292;2023-03-01T12:22:09;94167.94;;;3.98;74.76
30935;BME280;51033;42.648;23.292;2023-03-01T12:32:54;94157.66;;;4.26;74.45
30935;BME280;51033;42.648;23.292;2023-03-01T12:49:22;94116.06;;;4.59;72.54
30935;BME280;51033;42.648;23.292;2023-03-01T12:52:03;94138.41;;;4.72;72.77
30935;BME280;51033;42.648;23.292;2023-03-01T12:54:36;94121.34;;;4.39;73.27
30935;BME280;51033;42.648;23.292;2023-03-01T13:00:21;94139.78;;;4.49;73.27
30935;BME280;51033;42.648;23.292;2023-03-01T13:03:29;94139.75;;;4.64;73.22
30935;BME280;51033;42.648;23.292;2023-03-01T13:06:07;94134.72;;;4.73;73.03
30935;BME280;51033;42.648;23.292;2023-03-01T13:11:26;94106.00;;;4.61;72.38
30935;BME280;51033;42.648;23.292;2023-03-01T13:13:51;94120.22;;;4.70;71.76
30935;BME280;51033;42.648;23.292;2023-03-01T13:16:39;94106.50;;;4.78;71.53
30935;BME280;51033;42.648;23.292;2023-03-01T13:19:22;94118.81;;;4.93;71.06
30935;BME280;51033;42.648;23.292;2023-03-01T13:21:50;94144.81;;;5.14;70.83
30935;BME280;51033;42.648;23.292;2023-03-01T13:24:41;94139.44;;;4.76;72.02
30935;BME280;51033;42.648;23.292;2023-03-01T13:29:50;94141.84;;;4.67;72.40
30935;BME280;51033;42.648;23.292;2023-03-01T13:32:36;94150.81;;;4.51;72.87
30935;BME280;51033;42.648;23.292;2023-03-01T13:37:43;94155.03;;;4.26;75.47
30935;BME280;51033;42.648;23.292;2023-03-01T13:42:45;94147.69;;;4.13;75.84
30935;BME280;51033;42.648;23.292;2023-03-01T13:45:19;94151.91;;;4.09;76.42
30935;BME280;51033;42.648;23.292;2023-03-01T13:47:46;94148.22;;;4.05;76.17
30935;BME280;51033;42.648;23.292;2023-03-01T13:50:35;94138.75;;;4.19;75.52
30935;BME280;51033;42.648;23.292;2023-03-01T13:53:05;94130.31;;;4.12;75.61
30935;BME280;51033;42.648;23.292;2023-03-01T13:55:37;94142.44;;;4.03;75.87
30935;BME280;51033;42.648;23.292;2023-03-01T13:58:16;94139.25;;;4.06;76.08
30935;BME280;51033;42.648;23.292;2023-03-01T14:00:44;94124.53;;;3.95;75.90
30935;BME280;51033;42.648;23.292;2023-03-01T14:05:39;94123.47;;;4.06;75.96
30935;BME280;51033;42.648;23.292;2023-03-01T14:08:21;94143.47;;;4.27;74.51
30935;BME280;51033;42.648;23.292;2023-03-01T14:16:36;94140.34;;;3.95;76.37
30935;BME280;51033;42.648;23.292;2023-03-01T14:19:20;94141.38;;;3.79;76.79
30935;BME280;51033;42.648;23.292;2023-03-01T14:21:59;94137.16;;;3.93;76.82
30935;BME280;51033;42.648;23.292;2023-03-01T14:24:28;94131.38;;;4.01;76.80
30935;BME280;51033;42.648;23.292;2023-03-01T14:26:54;94130.84;;;4.09;76.82
30935;BME280;51033;42.648;23.292;2023-03-01T14:29:37;94129.25;;;4.08;76.54
30935;BME280;51033;42.648;23.292;2023-03-01T14:34:35;94113.47;;;4.18;76.24
30935;BME280;51033;42.648;23.292;2023-03-01T14:37:33;94096.63;;;4.14;75.47
30935;BME280;51033;42.648;23.292;2023-03-01T14:40:03;94111.88;;;4.17;75.60
30935;BME280;51033;42.648;23.292;2023-03-01T14:42:35;94131.09;;;4.18;75.71
30935;BME280;51033;42.648;23.292;2023-03-01T14:45:03;94113.47;;;3.83;76.51
30935;BME280;51033;42.648;23.292;2023-03-01T14:47:34;94084.81;;;3.87;76.39
30935;BME280;51033;42.648;23.292;2023-03-01T14:50:24;94120.31;;;4.09;76.59
30935;BME280;51033;42.648;23.292;2023-03-01T14:52:53;94129.00;;;3.69;78.19
30935;BME280;51033;42.648;23.292;2023-03-01T14:57:56;94097.69;;;3.48;79.03
30935;BME280;51033;42.648;23.292;2023-03-01T15:00:25;94100.28;;;3.27;79.91
30935;BME280;51033;42.648;23.292;2023-03-01T15:02:53;94098.91;;;3.10;80.84
30935;BME280;51033;42.648;23.292;2023-03-01T15:05:27;94116.84;;;3.38;80.76
30935;BME280;51033;42.648;23.292;2023-03-01T15:07:54;94054.50;;;2.93;80.63
30935;BME280;51033;42.648;23.292;2023-03-01T15:10:29;94107.09;;;3.13;81.10
30935;BME280;51033;42.648;23.292;2023-03-01T15:12:56;94093.34;;;2.86;82.01
30935;BME280;51033;42.648;23.292;2023-03-01T15:17:52;94119.13;;;2.99;82.65
30935;BME280;51033;42.648;23.292;2023-03-01T15:20:20;94107.63;;;3.20;82.11
30935;BME280;51033;42.648;23.292;2023-03-01T15:22:52;94098.13;;;3.04;82.01
30935;BME280;51033;42.648;23.292;2023-03-01T15:25:19;94100.28;;;3.27;81.27